sensor_id;sensor_type;location;lat;lon;timestamp;pressure;altitude;pressure_sealevel;temperature;humidity
73870;BME280;64924;42.140;24.762;2023-04-05T00:00:42;98952.97;;;9.33;48.56
73870;BME280;64924;42.140;24.762;2023-04-05T00:03:07;98927.31;;;9.16;48.27
73870;BME280;64924;42.140;24.762;2023-04-05T00:05:34;98956.53;;;9.41;47.95
73870;BME280;64924;42.140;24.762;2023-04-05T00:08:01;98947.75;;;9.32;48.34
73870;BME280;64924;42.140;24.762;2023-04-05T00:10:28;98954.44;;;9.36;48.21
73870;BME280;64924;42.140;24.762;2023-04-05T00:12:53;98954.00;;;9.32;48.14
73870;BME280;64924;42.140;24.762;2023-04-05T00:15:20;98905.97;;;8.87;48.51
73870;BME280;64924;42.140;24.762;2023-04-05T00:17:45;98957.53;;;9.13;48.63
73870;BME280;64924;42.140;24.762;2023-04-05T00:20:11;98951.88;;;9.08;48.79
73870;BME280;64924;42.140;24.762;2023-04-05T00:22:37;98948.53;;;9.06;48.64
73870;BME280;64924;42.140;24.762;2023-04-05T00:25:03;98875.91;;;8.68;49.10
73870;BME280;64924;42.140;24.762;2023-04-05T00:27:29;98958.91;;;8.96;48.95
73870;BME280;64924;42.140;24.762;2023-04-05T00:29:55;98961.03;;;9.07;48.77
73870;BME280;64924;42.140;24.762;2023-04-05T00:32:21;98963.56;;;9.15;49.20
73870;BME280;64924;42.140;24.762;2023-04-05T00:34:46;98958.59;;;9.19;49.51
73870;BME280;64924;42.140;24.762;2023-04-05T00:37:12;98918.06;;;8.91;49.01
73870;BME280;64924;42.140;24.762;2023-04-05T00:39:38;98968.41;;;9.26;48.96
73870;BME280;64924;42.140;24.762;2023-04-05T00:42:04;98966.09;;;9.23;48.64
73870;BME280;64924;42.140;24.762;2023-04-05T00:44:31;98954.19;;;9.11;48.56
73870;BME280;64924;42.140;24.762;2023-04-05T00:47:04;98949.41;;;9.13;48.64
73870;BME280;64924;42.140;24.762;2023-04-05T00:49:31;98968.56;;;9.12;48.37
73870;BME280;64924;42.140;24.762;2023-04-05T00:51:57;98928.84;;;8.78;48.63
73870;BME280;64924;42.140;24.762;2023-04-05T00:54:27;98966.03;;;9.03;48.41
73870;BME280;64924;42.140;24.762;2023-04-05T00:56:57;98955.59;;;9.00;48.51
73870;BME280;64924;42.140;24.762;2023-04-05T00:59:24;98934.34;;;8.91;48.16
73870;BME280;64924;42.140;24.762;2023-04-05T01:01:54;98973.69;;;8.93;48.91
73870;BME280;64924;42.140;24.762;2023-04-05T01:04:29;98955.16;;;8.97;48.84
73870;BME280;64924;42.140;24.762;2023-04-05T01:12:01;98967.28;;;9.08;48.51
73870;BME280;64924;42.140;24.762;2023-04-05T01:14:27;98961.41;;;8.91;48.78
73870;BME280;64924;42.140;24.762;2023-04-05T01:16:52;98971.19;;;8.85;48.98
73870;BME280;64924;42.140;24.762;2023-04-05T01:19:26;98908.28;;;8.42;48.27
73870;BME280;64924;42.140;24.762;2023-04-05T01:30:36;98980.25;;;9.19;47.99
73870;BME280;64924;42.140;24.762;2023-04-05T01:33:29;98981.72;;;9.15;48.19
73870;BME280;64924;42.140;24.762;2023-04-05T01:38:39;98963.69;;;8.94;48.58
73870;BME280;64924;42.140;24.762;2023-04-05T01:41:05;98981.00;;;8.99;49.02
73870;BME280;64924;42.140;24.762;2023-04-05T01:43:31;98987.44;;;8.85;49.07
73870;BME280;64924;42.140;24.762;2023-04-05T01:45:56;98942.75;;;8.68;49.08
73870;BME280;64924;42.140;24.762;2023-04-05T01:48:22;98980.81;;;9.01;48.77
73870;BME280;64924;42.140;24.762;2023-04-05T01:50:47;98974.28;;;8.82;48.99
73870;BME280;64924;42.140;24.762;2023-04-05T01:53:13;98983.88;;;8.85;49.26
73870;BME280;64924;42.140;24.762;2023-04-05T01:55:38;98976.75;;;8.77;48.96
73870;BME280;64924;42.140;24.762;2023-04-05T01:58:04;98981.34;;;8.77;48.64
73870;BME280;64924;42.140;24.762;2023-04-05T02:00:29;98986.09;;;8.68;48.92
73870;BME280;64924;42.140;24.762;2023-04-05T02:02:55;98989.63;;;8.68;48.71
73870;BME280;64924;42.140;24.762;2023-04-05T02:05:20;98998.38;;;8.70;49.21
73870;BME280;64924;42.140;24.762;2023-04-05T02:07:46;98990.66;;;8.67;48.86
73870;BME280;64924;42.140;24.762;2023-04-05T02:10:13;99002.56;;;8.73;48.51
73870;BME280;64924;42.140;24.762;2023-04-05T02:12:39;98997.75;;;8.68;49.47
73870;BME280;64924;42.140;24.762;2023-04-05T02:15:04;98997.31;;;8.65;49.07
73870;BME280;64924;42.140;24.762;2023-04-05T02:17:30;98986.69;;;8.63;49.07
73870;BME280;64924;42.140;24.762;2023-04-05T02:20:00;98957.88;;;8.49;48.60
73870;BME280;64924;42.140;24.762;2023-04-05T02:22:27;98997.72;;;8.62;49.06
73870;BME280;64924;42.140;24.762;2023-04-05T02:24:54;98986.78;;;8.42;49.13
73870;BME280;64924;42.140;24.762;2023-04-05T02:27:19;99009.06;;;8.44;49.49
73870;BME280;64924;42.140;24.762;2023-04-05T02:29:45;99011.63;;;8.52;49.47
73870;BME280;64924;42.140;24.762;2023-04-05T02:32:11;99003.72;;;8.51;49.68
73870;BME280;64924;42.140;24.762;2023-04-05T02:34:36;98999.28;;;8.43;49.67
73870;BME280;64924;42.140;24.762;2023-04-05T02:37:05;99013.31;;;8.53;49.54
73870;BME280;64924;42.140;24.762;2023-04-05T02:39:31;99019.06;;;8.44;49.52
73870;BME280;64924;42.140;24.762;2023-04-05T02:41:57;99009.28;;;8.43;49.65
73870;BME280;64924;42.140;24.762;2023-04-05T02:44:23;99003.22;;;8.41;49.12
73870;BME280;64924;42.140;24.762;2023-04-05T02:46:49;98998.19;;;8.37;49.48
73870;BME280;64924;42.140;24.762;2023-04-05T02:49:15;99019.56;;;8.60;48.94
73870;BME280;64924;42.140;24.762;2023-04-05T02:51:40;98993.06;;;8.49;49.21
73870;BME280;64924;42.140;24.762;2023-04-05T02:54:05;99026.03;;;8.59;49.05
73870;BME280;64924;42.140;24.762;2023-04-05T02:56:31;99019.56;;;8.54;48.62
73870;BME280;64924;42.140;24.762;2023-04-05T02:58:56;99023.28;;;8.53;48.95
73870;BME280;64924;42.140;24.762;2023-04-05T03:01:22;99004.88;;;8.42;48.54
73870;BME280;64924;42.140;24.762;2023-04-05T03:03:48;99022.66;;;8.51;49.27
73870;BME280;64924;42.140;24.762;2023-04-05T03:06:13;99027.44;;;8.55;49.36
73870;BME280;64924;42.140;24.762;2023-04-05T03:08:40;99026.41;;;8.56;48.97
73870;BME280;64924;42.140;24.762;2023-04-05T03:11:10;98992.91;;;8.29;48.51
73870;BME280;64924;42.140;24.762;2023-04-05T03:13:36;98996.84;;;8.27;48.36
73870;BME280;64924;42.140;24.762;2023-04-05T03:16:02;99032.84;;;8.49;48.60
73870;BME280;64924;42.140;24.762;2023-04-05T03:18:27;99037.88;;;8.52;48.20
73870;BME280;64924;42.140;24.762;2023-04-05T03:20:54;99027.88;;;8.52;48.11
73870;BME280;64924;42.140;24.762;2023-04-05T03:23:27;99046.66;;;8.60;48.27
73870;BME280;64924;42.140;24.762;2023-04-05T03:26:03;99038.53;;;8.60;48.27
73870;BME280;64924;42.140;24.762;2023-04-05T03:28:30;99008.63;;;8.41;48.18
73870;BME280;64924;42.140;24.762;2023-04-05T03:30:58;99048.50;;;8.60;47.81
73870;BME280;64924;42.140;24.762;2023-04-05T03:33:24;99036.78;;;8.46;48.09
73870;BME280;64924;42.140;24.762;2023-04-05T03:35:49;99006.13;;;8.39;48.35
73870;BME280;64924;42.140;24.762;2023-04-05T03:38:15;99033.88;;;8.48;48.51
73870;BME280;64924;42.140;24.762;2023-04-05T03:40:41;99054.31;;;8.57;48.75
73870;BME280;64924;42.140;24.762;2023-04-05T03:43:07;99053.28;;;8.51;48.38
73870;BME280;64924;42.140;24.762;2023-04-05T03:45:32;99046.00;;;8.58;48.32
73870;BME280;64924;42.140;24.762;2023-04-05T03:47:58;99045.16;;;8.58;48.28
73870;BME280;64924;42.140;24.762;2023-04-05T03:50:24;99056.41;;;8.55;48.26
73870;BME280;64924;42.140;24.762;2023-04-05T03:52:51;99020.34;;;8.26;48.35
73870;BME280;64924;42.140;24.762;2023-04-05T03:55:17;99058.19;;;8.41;48.30
73870;BME280;64924;42.140;24.762;2023-04-05T03:57:43;98997.81;;;7.91;47.88
73870;BME280;64924;42.140;24.762;2023-04-05T04:00:09;99039.66;;;8.17;48.76
73870;BME280;64924;42.140;24.762;2023-04-05T04:02:46;99064.28;;;8.28;48.85
73870;BME280;64924;42.140;24.762;2023-04-05T04:05:13;99057.34;;;8.19;48.84
73870;BME280;64924;42.140;24.762;2023-04-05T04:07:39;98992.34;;;7.85;48.13
73870;BME280;64924;42.140;24.762;2023-04-05T04:10:06;99069.41;;;8.38;48.08
73870;BME280;64924;42.140;24.762;2023-04-05T04:12:32;99064.44;;;8.42;47.83
73870;BME280;64924;42.140;24.762;2023-04-05T04:14:58;99069.41;;;8.38;48.26
73870;BME280;64924;42.140;24.762;2023-04-05T04:17:32;99055.47;;;8.41;47.77
73870;BME280;64924;42.140;24.762;2023-04-05T04:19:58;99070.25;;;8.38;48.01
73870;BME280;64924;42.140;24.762;2023-04-05T04:22:24;99085.03;;;8.70;47.46
73870;BME280;64924;42.140;24.762;2023-04-05T04:25:07;99083.78;;;9.49;45.98
73870;BME280;64924;42.140;24.762;2023-04-05T04:27:36;99077.25;;;10.11;44.60
73870;BME280;64924;42.140;24.762;2023-04-05T04:30:07;99071.63;;;10.19;44.36
73870;BME280;64924;42.140;24.762;2023-04-05T04:32:35;99086.31;;;9.57;45.19
73870;BME280;64924;42.140;24.762;2023-04-05T04:35:18;99097.72;;;9.39;45.62
73870;BME280;64924;42.140;24.762;2023-04-05T04:37:54;99047.97;;;9.12;46.07
73870;BME280;64924;42.140;24.762;2023-04-05T04:40:28;99051.28;;;9.08;45.46
73870;BME280;64924;42.140;24.762;2023-04-05T04:42:56;99099.06;;;9.15;45.84
73870;BME280;64924;42.140;24.762;2023-04-05T04:45:25;99106.53;;;9.07;46.35
73870;BME280;64924;42.140;24.762;2023-04-05T04:47:51;99105.53;;;9.14;45.83
73870;BME280;64924;42.140;24.762;2023-04-05T04:50:18;99109.13;;;9.21;45.79
73870;BME280;64924;42.140;24.762;2023-04-05T04:52:44;99102.41;;;9.17;45.60
73870;BME280;64924;42.140;24.762;2023-04-05T04:55:11;99089.91;;;9.16;45.60
73870;BME280;64924;42.140;24.762;2023-04-05T04:57:39;99104.53;;;9.28;44.88
73870;BME280;64924;42.140;24.762;2023-04-05T05:00:09;99113.16;;;9.38;44.66
73870;BME280;64924;42.140;24.762;2023-04-05T05:02:42;99121.97;;;9.54;44.07
73870;BME280;64924;42.140;24.762;2023-04-05T05:05:08;99111.47;;;9.92;43.24
73870;BME280;64924;42.140;24.762;2023-04-05T05:07:35;99094.38;;;10.11;42.53
73870;BME280;64924;42.140;24.762;2023-04-05T05:10:02;99098.34;;;11.08;41.11
73870;BME280;64924;42.140;24.762;2023-04-05T05:12:28;99076.69;;;11.84;39.34
73870;BME280;64924;42.140;24.762;2023-04-05T05:14:55;99114.81;;;12.71;37.31
73870;BME280;64924;42.140;24.762;2023-04-05T05:17:21;99119.41;;;12.46;38.20
73870;BME280;64924;42.140;24.762;2023-04-05T05:19:47;99111.69;;;12.12;38.37
73870;BME280;64924;42.140;24.762;2023-04-05T05:22:13;99124.66;;;11.78;39.25
73870;BME280;64924;42.140;24.762;2023-04-05T05:24:38;99103.56;;;11.09;39.27
73870;BME280;64924;42.140;24.762;2023-04-05T05:27:04;99127.41;;;10.94;40.50
73870;BME280;64924;42.140;24.762;2023-04-05T05:29:30;99104.88;;;10.60;41.21
73870;BME280;64924;42.140;24.762;2023-04-05T05:31:56;99127.88;;;10.64;41.46
73870;BME280;64924;42.140;24.762;2023-04-05T05:34:21;99123.25;;;10.58;41.24
73870;BME280;64924;42.140;24.762;2023-04-05T05:36:47;99138.53;;;10.66;41.25
73870;BME280;64924;42.140;24.762;2023-04-05T05:39:12;99119.50;;;10.33;41.37
73870;BME280;64924;42.140;24.762;2023-04-05T05:41:38;99086.44;;;10.10;41.31
73870;BME280;64924;42.140;24.762;2023-04-05T05:44:03;99127.22;;;10.36;41.86
73870;BME280;64924;42.140;24.762;2023-04-05T05:46:29;99115.31;;;10.37;41.90
73870;BME280;64924;42.140;24.762;2023-04-05T05:48:55;99119.06;;;10.49;40.90
73870;BME280;64924;42.140;24.762;2023-04-05T05:51:20;99090.06;;;10.36;41.17
73870;BME280;64924;42.140;24.762;2023-04-05T05:53:46;99124.94;;;10.73;41.35
73870;BME280;64924;42.140;24.762;2023-04-05T05:56:12;99132.47;;;10.64;41.55
73870;BME280;64924;42.140;24.762;2023-04-05T05:58:37;99122.00;;;10.48;41.08
73870;BME280;64924;42.140;24.762;2023-04-05T06:01:05;99119.06;;;10.43;41.30
73870;BME280;64924;42.140;24.762;2023-04-05T06:03:31;99088.38;;;10.29;41.23
73870;BME280;64924;42.140;24.762;2023-04-05T06:05:58;99121.16;;;10.41;41.46
73870;BME280;64924;42.140;24.762;2023-04-05T06:08:25;99137.66;;;10.26;40.88
73870;BME280;64924;42.140;24.762;2023-04-05T06:10:54;99131.38;;;10.25;41.62
73870;BME280;64924;42.140;24.762;2023-04-05T06:13:19;99138.91;;;10.30;41.15
73870;BME280;64924;42.140;24.762;2023-04-05T06:15:48;99128.91;;;10.37;41.30
73870;BME280;64924;42.140;24.762;2023-04-05T06:18:14;99093.31;;;9.99;41.47
73870;BME280;64924;42.140;24.762;2023-04-05T06:20:43;99148.94;;;10.23;40.96
73870;BME280;64924;42.140;24.762;2023-04-05T06:23:10;99143.84;;;10.06;41.46
73870;BME280;64924;42.140;24.762;2023-04-05T06:25:36;99143.19;;;10.04;41.71
73870;BME280;64924;42.140;24.762;2023-04-05T06:28:03;99121.94;;;10.01;41.97
73870;BME280;64924;42.140;24.762;2023-04-05T06:30:29;99143.28;;;10.24;41.26
73870;BME280;64924;42.140;24.762;2023-04-05T06:32:54;99138.09;;;10.29;41.17
73870;BME280;64924;42.140;24.762;2023-04-05T06:35:23;99147.28;;;10.28;41.01
73870;BME280;64924;42.140;24.762;2023-04-05T06:37:49;99149.75;;;10.23;41.41
73870;BME280;64924;42.140;24.762;2023-04-05T06:40:16;99142.06;;;10.33;41.50
73870;BME280;64924;42.140;24.762;2023-04-05T06:42:42;99151.25;;;10.52;41.45
73870;BME280;64924;42.140;24.762;2023-04-05T06:45:08;99162.34;;;10.64;40.68
73870;BME280;64924;42.140;24.762;2023-04-05T06:47:35;99153.13;;;10.58;40.59
73870;BME280;64924;42.140;24.762;2023-04-05T06:50:05;99130.38;;;10.59;40.51
73870;BME280;64924;42.140;24.762;2023-04-05T06:52:31;99101.53;;;10.52;40.50
73870;BME280;64924;42.140;24.762;2023-04-05T06:54:57;99167.56;;;10.72;40.08
73870;BME280;64924;42.140;24.762;2023-04-05T06:57:23;99171.75;;;10.68;40.33
73870;BME280;64924;42.140;24.762;2023-04-05T06:59:50;99171.31;;;10.78;40.41
73870;BME280;64924;42.140;24.762;2023-04-05T07:02:17;99171.72;;;10.81;40.85
73870;BME280;64924;42.140;24.762;2023-04-05T07:04:42;99179.50;;;10.71;40.40
73870;BME280;64924;42.140;24.762;2023-04-05T07:07:08;99145.59;;;10.21;40.46
73870;BME280;64924;42.140;24.762;2023-04-05T07:09:34;99120.47;;;10.19;40.33
73870;BME280;64924;42.140;24.762;2023-04-05T07:12:01;99184.91;;;10.64;40.31
73870;BME280;64924;42.140;24.762;2023-04-05T07:14:29;99185.13;;;10.63;39.88
73870;BME280;64924;42.140;24.762;2023-04-05T07:16:54;99190.13;;;10.53;40.09
73870;BME280;64924;42.140;24.762;2023-04-05T07:19:20;99148.53;;;10.39;40.51
73870;BME280;64924;42.140;24.762;2023-04-05T07:21:45;99183.41;;;10.29;40.16
73870;BME280;64924;42.140;24.762;2023-04-05T07:24:11;99187.59;;;10.38;40.13
73870;BME280;64924;42.140;24.762;2023-04-05T07:26:36;99154.09;;;10.11;40.70
73870;BME280;64924;42.140;24.762;2023-04-05T07:29:05;99186.16;;;10.62;40.99
73870;BME280;64924;42.140;24.762;2023-04-05T07:31:33;99202.25;;;10.90;40.36
73870;BME280;64924;42.140;24.762;2023-04-05T07:33:59;99198.91;;;11.08;39.69
73870;BME280;64924;42.140;24.762;2023-04-05T07:36:26;99206.03;;;11.02;39.05
73870;BME280;64924;42.140;24.762;2023-04-05T07:38:56;99212.31;;;11.09;39.21
73870;BME280;64924;42.140;24.762;2023-04-05T07:41:23;99207.69;;;10.96;39.11
73870;BME280;64924;42.140;24.762;2023-04-05T07:43:49;99173.44;;;10.76;39.30
73870;BME280;64924;42.140;24.762;2023-04-05T07:46:15;99203.50;;;11.14;39.18
73870;BME280;64924;42.140;24.762;2023-04-05T07:48:40;99205.59;;;11.12;39.35
73870;BME280;64924;42.140;24.762;2023-04-05T07:51:07;99216.84;;;11.42;38.56
73870;BME280;64924;42.140;24.762;2023-04-05T07:53:33;99218.53;;;11.49;38.54
73870;BME280;64924;42.140;24.762;2023-04-05T07:56:03;99224.97;;;11.61;38.50
73870;BME280;64924;42.140;24.762;2023-04-05T07:58:29;99224.31;;;11.66;38.53
73870;BME280;64924;42.140;24.762;2023-04-05T08:01:02;99215.13;;;11.60;38.81
73870;BME280;64924;42.140;24.762;2023-04-05T08:03:28;99197.13;;;11.59;39.07
73870;BME280;64924;42.140;24.762;2023-04-05T08:05:54;99229.22;;;12.09;38.22
73870;BME280;64924;42.140;24.762;2023-04-05T08:08:20;99229.06;;;12.42;37.71
73870;BME280;64924;42.140;24.762;2023-04-05T08:10:45;99208.75;;;12.69;36.77
73870;BME280;64924;42.140;24.762;2023-04-05T08:13:10;99214.94;;;12.83;36.25
73870;BME280;64924;42.140;24.762;2023-04-05T08:15:36;99221.19;;;12.90;36.27
73870;BME280;64924;42.140;24.762;2023-04-05T08:18:01;99213.72;;;12.79;35.53
73870;BME280;64924;42.140;24.762;2023-04-05T08:20:27;99217.75;;;12.69;36.55
73870;BME280;64924;42.140;24.762;2023-04-05T08:22:52;99225.00;;;12.57;36.14
73870;BME280;64924;42.140;24.762;2023-04-05T08:25:18;99230.34;;;12.70;36.18
73870;BME280;64924;42.140;24.762;2023-04-05T08:27:43;99208.97;;;12.99;35.91
73870;BME280;64924;42.140;24.762;2023-04-05T08:30:09;99229.06;;;13.29;35.70
73870;BME280;64924;42.140;24.762;2023-04-05T08:32:35;99224.91;;;13.45;35.63
73870;BME280;64924;42.140;24.762;2023-04-05T08:35:01;99226.69;;;13.58;34.50
73870;BME280;64924;42.140;24.762;2023-04-05T08:37:26;99233.44;;;13.92;34.64
73870;BME280;64924;42.140;24.762;2023-04-05T08:39:52;99236.25;;;14.03;34.66
73870;BME280;64924;42.140;24.762;2023-04-05T08:42:24;99239.03;;;14.15;33.89
73870;BME280;64924;42.140;24.762;2023-04-05T08:44:51;99241.25;;;13.88;33.72
73870;BME280;64924;42.140;24.762;2023-04-05T08:47:21;99244.22;;;13.87;34.10
73870;BME280;64924;42.140;24.762;2023-04-05T08:49:47;99245.78;;;13.58;34.71
73870;BME280;64924;42.140;24.762;2023-04-05T08:52:13;99242.72;;;13.29;34.67
73870;BME280;64924;42.140;24.762;2023-04-05T08:54:39;99245.94;;;13.13;35.18
73870;BME280;64924;42.140;24.762;2023-04-05T08:57:06;99249.16;;;13.03;35.31
73870;BME280;64924;42.140;24.762;2023-04-05T08:59:32;99206.84;;;12.69;35.59
73870;BME280;64924;42.140;24.762;2023-04-05T09:02:07;99264.34;;;12.99;35.04
73870;BME280;64924;42.140;24.762;2023-04-05T09:04:37;99257.34;;;12.79;35.16
73870;BME280;64924;42.140;24.762;2023-04-05T09:07:10;99262.94;;;12.59;35.32
73870;BME280;64924;42.140;24.762;2023-04-05T09:09:38;99220.56;;;12.25;35.59
73870;BME280;64924;42.140;24.762;2023-04-05T09:12:07;99262.09;;;12.58;35.57
73870;BME280;64924;42.140;24.762;2023-04-05T09:14:33;99258.09;;;12.61;35.70
73870;BME280;64924;42.140;24.762;2023-04-05T09:17:02;99268.22;;;12.47;35.85
73870;BME280;64924;42.140;24.762;2023-04-05T09:19:29;99273.50;;;12.35;36.24
73870;BME280;64924;42.140;24.762;2023-04-05T09:22:05;99241.34;;;12.19;35.79
73870;BME280;64924;42.140;24.762;2023-04-05T09:27:03;99268.41;;;12.52;36.13
73870;BME280;64924;42.140;24.762;2023-04-05T09:29:30;99272.38;;;12.56;35.97
73870;BME280;64924;42.140;24.762;2023-04-05T09:31:55;99272.09;;;12.64;36.03
73870;BME280;64924;42.140;24.762;2023-04-05T09:34:21;99275.97;;;12.50;35.86
73870;BME280;64924;42.140;24.762;2023-04-05T09:36:46;99276.06;;;12.68;36.00
73870;BME280;64924;42.140;24.762;2023-04-05T09:39:11;99268.16;;;12.60;35.57
73870;BME280;64924;42.140;24.762;2023-04-05T09:41:38;99262.53;;;12.55;36.25
73870;BME280;64924;42.140;24.762;2023-04-05T09:44:03;99285.91;;;12.69;35.88
73870;BME280;64924;42.140;24.762;2023-04-05T09:46:34;99278.09;;;12.80;35.58
73870;BME280;64924;42.140;24.762;2023-04-05T09:49:02;99268.38;;;12.59;35.15
73870;BME280;64924;42.140;24.762;2023-04-05T09:51:38;99269.25;;;12.53;35.46
73870;BME280;64924;42.140;24.762;2023-04-05T09:54:05;99271.97;;;12.53;35.91
73870;BME280;64924;42.140;24.762;2023-04-05T09:56:36;99272.88;;;12.71;35.67
73870;BME280;64924;42.140;24.762;2023-04-05T09:59:09;99231.53;;;12.50;35.77
73870;BME280;64924;42.140;24.762;2023-04-05T10:01:36;99273.69;;;12.41;36.14
73870;BME280;64924;42.140;24.762;2023-04-05T10:04:02;99278.34;;;12.33;36.11
73870;BME280;64924;42.140;24.762;2023-04-05T10:06:39;99267.13;;;12.17;36.72
73870;BME280;64924;42.140;24.762;2023-04-05T10:09:06;99271.97;;;12.01;36.84
73870;BME280;64924;42.140;24.762;2023-04-05T10:11:32;99278.66;;;12.05;37.74
73870;BME280;64924;42.140;24.762;2023-04-05T10:14:03;99287.03;;;12.11;37.17
73870;BME280;64924;42.140;24.762;2023-04-05T10:16:32;99283.50;;;11.97;36.96
73870;BME280;64924;42.140;24.762;2023-04-05T10:18:58;99259.47;;;11.87;37.17
73870;BME280;64924;42.140;24.762;2023-04-05T10:21:29;99287.47;;;12.01;36.90
73870;BME280;64924;42.140;24.762;2023-04-05T10:24:19;99285.41;;;11.96;37.10
73870;BME280;64924;42.140;24.762;2023-04-05T10:29:49;99279.78;;;11.85;37.38
73870;BME280;64924;42.140;24.762;2023-04-05T10:35:25;99288.31;;;12.01;37.67
73870;BME280;64924;42.140;24.762;2023-04-05T10:40:31;99291.47;;;11.98;37.38
73870;BME280;64924;42.140;24.762;2023-04-05T10:42:57;99285.63;;;11.88;37.07
73870;BME280;64924;42.140;24.762;2023-04-05T10:45:24;99253.00;;;11.68;37.25
73870;BME280;64924;42.140;24.762;2023-04-05T10:47:54;99275.31;;;12.03;37.08
73870;BME280;64924;42.140;24.762;2023-04-05T10:50:23;99248.59;;;11.67;37.65
73870;BME280;64924;42.140;24.762;2023-04-05T10:52:50;99293.97;;;11.93;37.27
73870;BME280;64924;42.140;24.762;2023-04-05T10:55:17;99287.91;;;11.91;37.83
73870;BME280;64924;42.140;24.762;2023-04-05T10:57:45;99282.09;;;11.81;37.73
73870;BME280;64924;42.140;24.762;2023-04-05T11:00:12;99287.91;;;11.91;38.01
73870;BME280;64924;42.140;24.762;2023-04-05T11:02:40;99291.69;;;11.90;37.82
73870;BME280;64924;42.140;24.762;2023-04-05T11:05:06;99264.91;;;11.74;37.78
73870;BME280;64924;42.140;24.762;2023-04-05T11:07:51;99297.94;;;12.11;37.74
73870;BME280;64924;42.140;24.762;2023-04-05T11:10:21;99309.56;;;12.31;37.03
73870;BME280;64924;42.140;24.762;2023-04-05T11:18:20;99294.78;;;12.58;37.07
73870;BME280;64924;42.140;24.762;2023-04-05T11:23:21;99290.94;;;12.66;36.76
73870;BME280;64924;42.140;24.762;2023-04-05T11:26:03;99292.84;;;12.65;36.58
73870;BME280;64924;42.140;24.762;2023-04-05T11:28:33;99279.31;;;12.52;36.76
73870;BME280;64924;42.140;24.762;2023-04-05T11:31:30;99298.66;;;12.76;36.56
73870;BME280;64924;42.140;24.762;2023-04-05T11:34:03;99290.31;;;12.70;36.76
73870;BME280;64924;42.140;24.762;2023-04-05T11:41:45;99302.81;;;12.85;36.82
73870;BME280;64924;42.140;24.762;2023-04-05T11:44:14;99287.53;;;12.77;36.45
73870;BME280;64924;42.140;24.762;2023-04-05T11:46:44;99298.00;;;12.80;36.71
73870;BME280;64924;42.140;24.762;2023-04-05T11:49:11;99286.47;;;12.78;37.08
73870;BME280;64924;42.140;24.762;2023-04-05T11:51:39;99297.13;;;12.86;36.89
73870;BME280;64924;42.140;24.762;2023-04-05T11:54:07;99247.00;;;12.56;36.43
73870;BME280;64924;42.140;24.762;2023-04-05T11:56:32;99299.06;;;12.79;36.31
73870;BME280;64924;42.140;24.762;2023-04-05T11:58:58;99291.97;;;12.71;36.81
73870;BME280;64924;42.140;24.762;2023-04-05T12:01:24;99289.25;;;12.71;36.95
73870;BME280;64924;42.140;24.762;2023-04-05T12:03:53;99296.47;;;12.91;36.84
73870;BME280;64924;42.140;24.762;2023-04-05T12:06:22;99284.53;;;12.92;36.56
73870;BME280;64924;42.140;24.762;2023-04-05T12:08:48;99286.69;;;12.77;37.36
73870;BME280;64924;42.140;24.762;2023-04-05T12:11:28;99283.31;;;12.81;37.02
73870;BME280;64924;42.140;24.762;2023-04-05T12:13:56;99262.97;;;12.52;37.32
73870;BME280;64924;42.140;24.762;2023-04-05T12:16:23;99264.97;;;12.63;37.12
73870;BME280;64924;42.140;24.762;2023-04-05T12:18:52;99256.47;;;12.47;36.96
73870;BME280;64924;42.140;24.762;2023-04-05T12:21:19;99252.09;;;12.46;37.04
73870;BME280;64924;42.140;24.762;2023-04-05T12:23:45;99297.72;;;12.57;36.65
73870;BME280;64924;42.140;24.762;2023-04-05T12:26:11;99287.69;;;12.51;36.37
73870;BME280;64924;42.140;24.762;2023-04-05T12:28:53;99297.53;;;12.52;36.56
73870;BME280;64924;42.140;24.762;2023-04-05T12:31:45;99295.47;;;12.47;36.98
73870;BME280;64924;42.140;24.762;2023-04-05T12:34:22;99301.97;;;12.46;37.06
73870;BME280;64924;42.140;24.762;2023-04-05T12:36:51;99299.69;;;12.43;37.78
73870;BME280;64924;42.140;24.762;2023-04-05T12:39:17;99294.06;;;12.31;38.18
73870;BME280;64924;42.140;24.762;2023-04-05T12:41:43;99255.63;;;12.08;38.51
73870;BME280;64924;42.140;24.762;2023-04-05T12:44:15;99286.38;;;12.15;38.62
73870;BME280;64924;42.140;24.762;2023-04-05T12:46:42;99294.56;;;12.15;38.90
73870;BME280;64924;42.140;24.762;2023-04-05T12:49:16;99296.84;;;12.25;39.03
73870;BME280;64924;42.140;24.762;2023-04-05T12:51:43;99260.66;;;12.04;39.04
73870;BME280;64924;42.140;24.762;2023-04-05T12:54:12;99256.25;;;12.10;38.96
73870;BME280;64924;42.140;24.762;2023-04-05T12:56:39;99290.59;;;12.04;38.53
73870;BME280;64924;42.140;24.762;2023-04-05T12:59:05;99280.34;;;12.07;38.22
73870;BME280;64924;42.140;24.762;2023-04-05T13:01:33;99255.72;;;11.62;38.00
73870;BME280;64924;42.140;24.762;2023-04-05T13:04:00;99296.91;;;11.98;37.77
73870;BME280;64924;42.140;24.762;2023-04-05T13:06:26;99295.06;;;11.86;37.94
73870;BME280;64924;42.140;24.762;2023-04-05T13:08:52;99306.38;;;11.69;38.47
73870;BME280;64924;42.140;24.762;2023-04-05T13:11:18;99299.09;;;11.50;39.42
73870;BME280;64924;42.140;24.762;2023-04-05T13:13:43;99301.81;;;11.50;40.50
73870;BME280;64924;42.140;24.762;2023-04-05T13:16:08;99308.69;;;11.66;41.61
73870;BME280;64924;42.140;24.762;2023-04-05T13:18:34;99307.22;;;11.70;41.79
73870;BME280;64924;42.140;24.762;2023-04-05T13:21:00;99304.94;;;11.80;41.17
73870;BME280;64924;42.140;24.762;2023-04-05T13:23:32;99294.19;;;11.92;40.62
73870;BME280;64924;42.140;24.762;2023-04-05T13:25:57;99302.34;;;12.05;40.24
73870;BME280;64924;42.140;24.762;2023-04-05T13:28:22;99273.25;;;11.99;39.82
73870;BME280;64924;42.140;24.762;2023-04-05T13:30:50;99312.59;;;12.10;39.39
73870;BME280;64924;42.140;24.762;2023-04-05T13:33:16;99294.16;;;12.12;38.95
73870;BME280;64924;42.140;24.762;2023-04-05T13:35:42;99299.41;;;12.00;39.35